Nearby METAR Reports

 

EGQL - Leuchars Raf, United Kingdom
Distance from station: SW 17km
Updated: 24/06/2021 18:50
Light rain, Overcast
Light rain, Overcast
 Wind from W
Wind: W 13 mph , 20 km/h
Temperature: 15°C
Dew Point: 13°C
Humidity: 88%
Barometer: 1015 hPa
Summary: Light rain
Clouds: Overcast
Visibility: 2 miles , 4 km
Cloud details: Overcast 1524 m
2021/06/24 16:50 EGQL 241650Z 27011KT 4000 -RA OVC050 15/13 Q1015 GRN
EGPN - Dundee/Riverside, United Kingdom
Distance from station: WSW 20km
Updated: 24/06/2021 18:50
Light rain, Showers, Mostly cloudy
Light rain, Showers, Mostly cloudy
 Wind from W
Wind: W 12 mph , 19 km/h
Temperature: 15°C
Dew Point: 14°C
Humidity: 94%
Barometer: 1015 hPa
Summary: Light rain, Showers
Clouds: Mostly cloudy
Visibility: 6 miles , 9 km
Cloud details: Few Clouds 183 m
Partly cloudy 366 m
Mostly cloudy 1463 m
2021/06/24 16:50 EGPN 241650Z 26010KT 9000 -SHRA FEW006 SCT012 BKN048 15/14 Q1015
 
EGPH - Edinburgh Airpor, United Kingdom
Distance from station: SSW 74km
Updated: 24/06/2021 18:50
Light rain, Mostly cloudy
Light rain, Mostly cloudy
 Wind from WSW
Wind: WSW 9 mph , 15 km/h
Temperature: 14°C
Dew Point: 13°C
Humidity: 94%
Barometer: 1016 hPa
Summary: Light rain
Clouds: Mostly cloudy
Visibility: 6 miles , 10 km
Cloud details: Mostly cloudy 366 m
2021/06/24 16:50 EGPH 241650Z 25008KT 9999 -RA BKN012 14/13 Q1016
EGPD - Aberdeen/Dyce, United Kingdom
Distance from station: NNE 82km
Updated: 24/06/2021 18:50
Light rain, Thunderstorm
Light rain, Thunderstorm
 Wind from NNW
Wind: NNW 5 mph , 7 km/h
Temperature: 16°C
Dew Point: 14°C
Humidity: 88%
Barometer: 1015 hPa
Summary: Light rain
Clouds: Thunderstorm
Visibility: 6 miles , 10 km
Cloud details: Few Clouds 1219 m
2021/06/24 16:50 EGPD 241650Z AUTO 34004KT 9999 -RA FEW040/// //////CB 16/14 Q1015 NOSIG